Time;durP1;ratioP1;P1;durP2;ratioP2;P2;SDS_P1;SDS_P2;PMS_P1;PMS_P2;Temp;Humidity;BMP_temperature;BMP_pressure;BME280_temperature;BME280_humidity;BME280_pressure;Samples;Min_cycle;Max_cycle;Signal;HPM_P1;HPM_P2
2022/12/13 00:01:16;;;;;;;21.97;16.90;;;;;;;-3.36;100.00;95729.28;5043002;28;20227;-59
2022/12/13 00:03:43;;;;;;;19.93;16.07;;;;;;;-3.38;100.00;95736.28;5042114;28;20295;-60
2022/12/13 00:06:11;;;;;;;19.73;15.63;;;;;;;-3.36;100.00;95729.28;5042955;28;20203;-59
2022/12/13 00:08:40;;;;;;;23.63;16.67;;;;;;;-3.30;100.00;95726.38;5041969;28;20209;-58
2022/12/13 00:11:08;;;;;;;20.93;16.17;;;;;;;-3.39;100.00;95732.03;5042845;28;20629;-60
2022/12/13 00:13:35;;;;;;;22.57;16.17;;;;;;;-3.31;100.00;95727.28;5042059;28;20214;-60
2022/12/13 00:16:03;;;;;;;22.43;16.60;;;;;;;-3.32;100.00;95725.63;5042708;28;21142;-59
2022/12/13 00:18:31;;;;;;;20.10;15.20;;;;;;;-3.34;100.00;95724.88;5041490;28;20541;-58
2022/12/13 00:20:57;;;;;;;19.43;16.20;;;;;;;-3.23;100.00;95724.31;5042910;28;20214;-60
2022/12/13 00:23:24;;;;;;;19.50;15.63;;;;;;;-3.17;100.00;95719.63;5042939;28;20200;-59
2022/12/13 00:25:52;;;;;;;18.50;15.93;;;;;;;-3.30;99.98;95723.81;5042895;28;21010;-60
2022/12/13 00:28:19;;;;;;;19.67;15.77;;;;;;;-3.18;100.00;95717.13;5042314;28;20209;-60
2022/12/13 00:30:45;;;;;;;19.53;15.57;;;;;;;-3.24;100.00;95723.47;5042934;28;20266;-61
2022/12/13 00:33:12;;;;;;;19.00;14.80;;;;;;;-3.26;99.99;95714.13;5043667;28;20203;-61
2022/12/13 00:35:40;;;;;;;18.93;15.43;;;;;;;-3.23;100.00;95711.38;5051795;28;20559;-61
2022/12/13 00:38:06;;;;;;;18.70;15.47;;;;;;;-3.21;99.96;95715.53;5048475;28;20211;-60
2022/12/13 00:40:33;;;;;;;17.87;14.87;;;;;;;-3.28;100.00;95714.19;5047188;28;20199;-60
2022/12/13 00:43:01;;;;;;;20.70;16.10;;;;;;;-3.17;100.00;95704.13;5048143;28;20203;-60
2022/12/13 00:45:28;;;;;;;21.23;15.87;;;;;;;-3.19;100.00;95707.72;5052816;28;20234;-60
2022/12/13 00:47:54;;;;;;;18.70;15.10;;;;;;;-3.23;99.72;95704.47;5056179;28;20211;-61
2022/12/13 00:50:21;;;;;;;20.00;15.37;;;;;;;-3.21;100.00;95701.78;5060952;28;20231;-61
2022/12/13 00:52:47;;;;;;;16.73;14.17;;;;;;;-3.18;100.00;95697.28;5060830;28;20199;-59
2022/12/13 00:55:14;;;;;;;19.57;15.77;;;;;;;-3.17;100.00;95698.94;5047018;28;20199;-60
2022/12/13 00:57:40;;;;;;;17.97;15.30;;;;;;;-3.12;100.00;95699.50;5045384;28;20214;-59
2022/12/13 01:00:10;;;;;;;20.07;13.80;;;;;;;-3.20;99.04;95699.13;5044826;28;20265;-58
2022/12/13 01:02:36;;;;;;;19.47;13.97;;;;;;;-3.21;98.96;95694.84;5045486;28;20213;-60
2022/12/13 01:05:03;;;;;;;19.00;14.53;;;;;;;-3.29;98.39;95689.25;5044992;28;20199;-59
2022/12/13 01:07:30;;;;;;;18.63;14.50;;;;;;;-3.32;99.08;95696.34;5045381;28;20207;-59
2022/12/13 01:09:57;;;;;;;17.53;14.67;;;;;;;-3.26;99.32;95683.09;5045218;28;20525;-59
2022/12/13 01:12:24;;;;;;;19.10;14.47;;;;;;;-3.25;98.70;95684.75;5044932;28;20204;-63
2022/12/13 01:14:50;;;;;;;16.70;14.83;;;;;;;-3.28;99.69;95684.94;5045377;28;20600;-61
2022/12/13 01:17:18;;;;;;;18.40;14.40;;;;;;;-3.37;99.46;95675.09;5044331;28;20207;-60
2022/12/13 01:19:45;;;;;;;17.77;13.57;;;;;;;-3.26;100.00;95683.09;5044415;28;20214;-61
2022/12/13 01:22:11;;;;;;;15.70;13.87;;;;;;;-3.35;100.00;95679.25;5044858;28;20256;-59
2022/12/13 01:24:38;;;;;;;16.80;13.60;;;;;;;-3.28;100.00;95688.34;5044376;28;20208;-60
2022/12/13 01:27:04;;;;;;;17.33;13.67;;;;;;;-3.33;99.25;95682.59;5045279;28;20211;-59
2022/12/13 01:29:31;;;;;;;15.50;12.90;;;;;;;-3.23;98.76;95678.59;5045359;28;20219;-59
2022/12/13 01:31:57;;;;;;;16.33;13.30;;;;;;;-3.31;99.28;95674.75;5044886;28;20235;-59
2022/12/13 01:34:26;;;;;;;20.00;13.70;;;;;;;-3.32;99.63;95671.34;5044883;28;20224;-60
2022/12/13 01:36:53;;;;;;;15.80;13.33;;;;;;;-3.27;100.00;95677.09;5045375;28;20290;-60
2022/12/13 01:39:20;;;;;;;17.13;13.57;;;;;;;-3.26;98.89;95683.91;5045669;28;20219;-59
2022/12/13 01:41:48;;;;;;;17.00;14.07;;;;;;;-3.41;98.26;95673.59;5045789;28;20532;-60
2022/12/13 01:45:07;;;;;;;16.50;13.87;;;;;;;-3.34;98.61;95669.75;5044944;28;20203;-59
2022/12/13 01:47:39;;;;;;;14.87;12.30;;;;;;;-3.36;99.43;95666.41;4972266;28;20216;-61
2022/12/13 01:50:10;;;;;;;15.60;13.40;;;;;;;-3.41;98.13;95663.25;4972047;28;20225;-61
2022/12/13 01:52:38;;;;;;;16.83;13.73;;;;;;;-3.45;98.21;95667.75;5008923;28;20211;-60
2022/12/13 01:55:07;;;;;;;15.73;12.90;;;;;;;-3.38;98.86;95676.84;5044585;28;20205;-60
2022/12/13 01:57:36;;;;;;;17.37;13.30;;;;;;;-3.42;98.75;95677.09;5042802;28;20205;-61
2022/12/13 02:00:04;;;;;;;19.27;13.97;;;;;;;-3.34;98.80;95670.59;5043210;28;20552;-61
2022/12/13 02:02:30;;;;;;;16.43;13.63;;;;;;;-3.33;98.47;95667.06;5043626;28;20208;-60
2022/12/13 02:05:04;;;;;;;16.43;13.57;;;;;;;-3.44;98.72;95669.44;5043498;28;20219;-61
2022/12/13 02:07:34;;;;;;;14.37;12.33;;;;;;;-3.38;99.29;95666.50;5043926;28;20206;-60
2022/12/13 02:10:03;;;;;;;16.30;13.30;;;;;;;-3.42;96.96;95665.00;5044338;28;20207;-60
2022/12/13 02:12:31;;;;;;;16.17;13.43;;;;;;;-3.42;98.96;95659.84;5043593;28;20324;-60
2022/12/13 02:14:59;;;;;;;15.80;12.57;;;;;;;-3.44;98.07;95659.09;5043382;28;20216;-61
2022/12/13 02:17:31;;;;;;;16.23;12.33;;;;;;;-3.59;96.96;95645.25;5043865;28;20208;-60
2022/12/13 02:20:37;;;;;;;14.53;12.87;;;;;;;-3.59;99.27;95649.56;5043248;28;20202;-60
2022/12/13 02:23:20;;;;;;;16.97;12.67;;;;;;;-3.52;99.43;95643.16;5001587;28;20201;-59
2022/12/13 02:26:07;;;;;;;17.20;13.00;;;;;;;-3.54;99.33;95642.41;5040311;28;20203;-60
2022/12/13 02:28:47;;;;;;;14.97;12.87;;;;;;;-3.65;99.52;95642.16;5043191;28;20238;-60
2022/12/13 02:31:17;;;;;;;15.87;12.97;;;;;;;-3.54;99.37;95644.97;5042944;28;20229;-60
2022/12/13 02:33:50;;;;;;;15.87;12.80;;;;;;;-3.54;98.98;95642.41;5043245;28;20643;-60
2022/12/13 02:36:20;;;;;;;14.47;12.07;;;;;;;-3.69;98.45;95638.91;5045626;28;20200;-60
2022/12/13 02:38:52;;;;;;;14.33;12.83;;;;;;;-3.69;98.63;95644.09;5044109;28;20222;-59
2022/12/13 02:41:23;;;;;;;14.67;12.50;;;;;;;-3.57;99.13;95647.72;5043278;28;20228;-59
2022/12/13 02:43:54;;;;;;;14.23;12.53;;;;;;;-3.60;98.86;95638.41;5044707;28;20199;-60
2022/12/13 02:46:23;;;;;;;12.57;11.27;;;;;;;-3.54;98.58;95639.81;5046372;28;20203;-60
2022/12/13 02:48:51;;;;;;;15.17;11.57;;;;;;;-3.52;98.85;95630.25;5042229;28;20210;-60
2022/12/13 02:51:18;;;;;;;16.00;12.63;;;;;;;-3.52;98.72;95638.00;5042368;28;20223;-60
2022/12/13 02:53:46;;;;;;;15.97;12.73;;;;;;;-3.50;99.56;95643.91;5042125;28;20203;-60
2022/12/13 02:56:12;;;;;;;16.00;12.47;;;;;;;-3.50;99.24;95633.56;5042339;28;20217;-59
2022/12/13 02:58:42;;;;;;;16.13;12.93;;;;;;;-3.46;99.69;95629.91;5042599;28;20220;-62
2022/12/13 03:01:20;;;;;;;15.73;12.47;;;;;;;-3.54;98.28;95632.91;5042309;28;20230;-60
2022/12/13 03:03:54;;;;;;;12.90;11.40;;;;;;;-3.55;99.80;95617.50;5041693;28;20192;-59
2022/12/13 03:06:29;;;;;;;14.13;12.07;;;;;;;-3.67;96.96;95625.91;5042499;28;20211;-60
2022/12/13 03:09:06;;;;;;;14.77;12.17;;;;;;;-3.71;98.80;95622.66;5055655;28;20195;-60
2022/12/13 03:14:24;;;;;;;14.30;11.70;;;;;;;-3.60;100.00;95606.56;5051547;28;20259;-60
2022/12/13 03:16:51;;;;;;;13.50;11.73;;;;;;;-3.65;100.00;95609.38;5043941;28;20214;-59
2022/12/13 03:19:19;;;;;;;16.93;12.73;;;;;;;-3.60;100.00;95606.56;5042321;28;20294;-60
2022/12/13 03:21:48;;;;;;;14.70;12.87;;;;;;;-3.77;97.12;95611.81;5042363;28;20211;-61
2022/12/13 03:24:17;;;;;;;13.87;11.93;;;;;;;-3.71;98.30;95614.06;5042727;28;20213;-61
2022/12/13 03:26:44;;;;;;;14.73;12.43;;;;;;;-3.71;97.44;95614.06;5041816;28;20211;-61
2022/12/13 03:29:10;;;;;;;15.70;12.20;;;;;;;-3.84;96.74;95628.56;5041948;28;20211;-61
2022/12/13 03:31:37;;;;;;;13.87;12.10;;;;;;;-3.80;98.66;95619.72;5042473;28;20347;-59
2022/12/13 03:34:03;;;;;;;13.23;11.63;;;;;;;-3.77;98.55;95609.22;5043326;28;20202;-60
2022/12/13 03:36:31;;;;;;;15.00;12.13;;;;;;;-3.69;98.38;95607.09;5043169;28;20211;-60
2022/12/13 03:38:57;;;;;;;15.87;13.17;;;;;;;-3.74;97.52;95609.06;5043413;28;21297;-60
2022/12/13 03:41:30;;;;;;;16.93;12.30;;;;;;;-3.83;97.69;95601.81;5042946;28;20278;-60
2022/12/13 03:43:56;;;;;;;17.93;12.20;;;;;;;-3.79;98.08;95605.91;5042163;28;20208;-59
2022/12/13 03:46:23;;;;;;;15.33;12.00;;;;;;;-3.78;97.36;95608.41;5041881;28;20200;-60
2022/12/13 03:48:49;;;;;;;13.43;11.43;;;;;;;-3.79;97.05;95603.34;5041248;28;20211;-59
2022/12/13 03:51:16;;;;;;;14.20;11.67;;;;;;;-3.74;98.14;95598.72;5042359;28;20228;-60
2022/12/13 03:53:44;;;;;;;15.10;11.67;;;;;;;-3.78;95.34;95602.38;5042293;28;20217;-60
2022/12/13 03:56:10;;;;;;;13.37;11.67;;;;;;;-3.77;96.61;95604.06;5042244;28;20261;-60
2022/12/13 03:58:37;;;;;;;13.03;11.47;;;;;;;-3.89;95.72;95604.72;5041333;28;20646;-60
2022/12/13 04:01:05;;;;;;;14.90;11.43;;;;;;;-3.83;96.49;95604.41;5042464;28;20246;-59
2022/12/13 04:03:32;;;;;;;12.37;11.03;;;;;;;-3.82;97.57;95598.31;5041086;28;20850;-61
2022/12/13 04:05:58;;;;;;;14.33;11.93;;;;;;;-3.79;97.39;95606.72;5041814;28;20215;-60
2022/12/13 04:08:25;;;;;;;13.53;11.67;;;;;;;-3.87;95.52;95592.56;5041553;28;20214;-61
2022/12/13 04:10:52;;;;;;;17.33;11.60;;;;;;;-3.86;94.80;95586.50;5041843;28;20218;-60
2022/12/13 04:13:33;;;;;;;12.50;10.83;;;;;;;-3.91;95.60;95585.91;5041646;28;20212;-61
2022/12/13 04:16:00;;;;;;;13.80;11.30;;;;;;;-3.95;96.10;95594.72;5041972;28;20200;-60
2022/12/13 04:18:27;;;;;;;13.67;11.33;;;;;;;-3.94;97.24;95596.41;5040989;28;20214;-61
2022/12/13 04:20:53;;;;;;;13.83;11.53;;;;;;;-3.92;95.54;95591.97;5044601;28;20214;-59
2022/12/13 04:23:20;;;;;;;14.20;11.80;;;;;;;-3.97;96.65;95593.97;5048067;28;20219;-61
2022/12/13 04:25:46;;;;;;;15.30;11.77;;;;;;;-3.94;95.96;95597.22;5046893;28;20198;-61
2022/12/13 04:28:14;;;;;;;12.10;10.77;;;;;;;-3.91;95.99;95585.91;5045454;28;20205;-61
2022/12/13 04:30:41;;;;;;;16.53;11.17;;;;;;;-3.92;94.51;95591.97;5047510;28;20218;-59
2022/12/13 04:33:08;;;;;;;13.90;11.23;;;;;;;-4.07;94.45;95596.19;5047322;28;20215;-59
2022/12/13 04:35:34;;;;;;;13.50;10.90;;;;;;;-4.08;94.58;95597.97;5046715;28;20227;-61
2022/12/13 04:38:01;;;;;;;16.10;11.17;;;;;;;-4.09;93.84;95588.53;5046205;28;20202;-60
2022/12/13 04:40:28;;;;;;;13.77;11.30;;;;;;;-4.10;95.80;95589.44;5047068;28;20661;-62
2022/12/13 04:42:54;;;;;;;13.50;11.13;;;;;;;-4.11;94.76;95594.72;5045358;28;20199;-62
2022/12/13 04:45:22;;;;;;;15.37;11.37;;;;;;;-4.08;94.79;95590.22;5045512;28;20203;-62
2022/12/13 04:47:49;;;;;;;15.17;11.53;;;;;;;-4.14;94.96;95593.09;5045403;28;20201;-61
2022/12/13 04:50:16;;;;;;;15.13;10.93;;;;;;;-4.13;95.99;95594.78;5045360;28;20201;-61
2022/12/13 04:52:43;;;;;;;13.40;11.30;;;;;;;-4.09;95.16;95583.38;5044917;28;20670;-62
2022/12/13 04:55:10;;;;;;;13.83;11.33;;;;;;;-4.10;94.37;95588.63;5045079;28;20463;-62
2022/12/13 04:57:36;;;;;;;13.33;11.03;;;;;;;-4.16;93.30;95582.03;5045182;28;20203;-61
2022/12/13 05:00:04;;;;;;;13.73;11.17;;;;;;;-4.18;96.20;95580.47;5045118;28;20235;-62
2022/12/13 05:02:31;;;;;;;13.90;11.47;;;;;;;-4.16;96.66;95576.88;5044583;28;20528;-61
2022/12/13 05:04:58;;;;;;;13.27;11.07;;;;;;;-4.21;94.75;95581.44;5044864;28;20199;-62
2022/12/13 05:07:25;;;;;;;14.27;11.17;;;;;;;-4.23;95.12;95593.59;5045346;28;20221;-62
2022/12/13 05:09:52;;;;;;;13.80;11.07;;;;;;;-4.19;94.80;95582.22;5044736;28;20194;-62
2022/12/13 05:12:18;;;;;;;13.63;10.80;;;;;;;-4.13;95.37;95592.19;5045497;28;20225;-61
2022/12/13 05:14:45;;;;;;;12.60;10.63;;;;;;;-4.12;94.25;95591.28;5045011;28;20688;-61
2022/12/13 05:17:11;;;;;;;14.63;11.10;;;;;;;-4.08;95.36;95590.22;5044753;28;20210;-61
2022/12/13 05:19:39;;;;;;;17.63;11.93;;;;;;;-4.05;94.79;95578.88;5044553;28;20203;-59
2022/12/13 05:22:14;;;;;;;12.37;11.07;;;;;;;-4.06;94.10;95572.06;5045004;28;20211;-60
2022/12/13 05:24:41;;;;;;;13.83;11.37;;;;;;;-4.05;93.62;95576.31;5044025;28;20252;-60
2022/12/13 05:27:08;;;;;;;14.67;11.87;;;;;;;-4.04;94.66;95581.38;5044707;28;20267;-60
2022/12/13 05:29:36;;;;;;;13.07;10.47;;;;;;;-4.07;96.22;95576.38;5043765;28;20218;-60
2022/12/13 05:32:02;;;;;;;12.90;10.70;;;;;;;-4.03;95.16;95572.72;5044199;28;20669;-60
2022/12/13 05:34:29;;;;;;;12.80;10.40;;;;;;;-3.95;94.50;95574.06;5061282;28;20208;-59
2022/12/13 05:36:57;;;;;;;12.73;10.67;;;;;;;-4.02;93.63;95571.81;5059405;28;20202;-59
2022/12/13 05:39:23;;;;;;;13.67;11.47;;;;;;;-4.07;91.95;95575.53;5049335;28;20209;-59
2022/12/13 05:41:50;;;;;;;11.57;9.77;;;;;;;-4.14;93.63;95575.03;5047671;28;20206;-61
2022/12/13 05:44:17;;;;;;;13.90;10.83;;;;;;;-4.08;93.57;95572.16;5044247;28;20224;-60
2022/12/13 05:46:43;;;;;;;12.97;10.73;;;;;;;-4.09;92.36;95567.91;5044141;28;20211;-60
2022/12/13 05:49:09;;;;;;;12.80;10.57;;;;;;;-4.14;94.01;95561.28;5043804;28;20229;-59
2022/12/13 05:51:36;;;;;;;15.60;10.33;;;;;;;-4.15;93.79;95563.06;5044116;28;20223;-60
2022/12/13 05:54:04;;;;;;;12.43;10.60;;;;;;;-4.14;94.18;95576.78;5043833;28;20208;-61
2022/12/13 05:56:31;;;;;;;15.20;10.60;;;;;;;-4.09;95.77;95573.06;5045177;28;20222;-60
2022/12/13 05:58:57;;;;;;;13.73;11.33;;;;;;;-4.15;92.72;95575.13;5043677;28;20215;-61
2022/12/13 06:01:24;;;;;;;12.13;10.23;;;;;;;-4.12;94.37;95574.97;5044072;28;20246;-60
2022/12/13 06:03:51;;;;;;;14.97;11.40;;;;;;;-4.10;94.80;95566.22;5043409;28;20210;-60
2022/12/13 06:06:17;;;;;;;12.90;10.30;;;;;;;-4.15;93.24;95563.06;5044444;28;20227;-60
2022/12/13 06:08:44;;;;;;;15.80;10.77;;;;;;;-4.13;94.30;95568.13;5044354;28;20202;-60
2022/12/13 06:11:12;;;;;;;13.20;10.37;;;;;;;-4.15;93.16;95557.91;5044571;28;20210;-60
2022/12/13 06:13:40;;;;;;;13.33;10.80;;;;;;;-4.07;94.53;95566.06;5044214;28;20211;-60
2022/12/13 06:16:07;;;;;;;14.57;11.33;;;;;;;-4.27;92.42;95574.03;5045951;28;20197;-60
2022/12/13 06:18:35;;;;;;;12.83;10.30;;;;;;;-4.26;92.55;95569.69;5046273;28;20225;-61
2022/12/13 06:21:03;;;;;;;13.30;10.63;;;;;;;-4.20;93.36;95569.38;5057315;28;20203;-60
2022/12/13 06:23:30;;;;;;;13.67;10.73;;;;;;;-4.15;94.04;95581.13;5051526;28;20391;-60
2022/12/13 06:25:59;;;;;;;13.47;10.17;;;;;;;-4.22;93.09;95573.78;5053369;28;20224;-59
2022/12/13 06:28:27;;;;;;;13.97;11.20;;;;;;;-4.20;93.18;95582.28;5054893;28;20640;-60
2022/12/13 06:30:53;;;;;;;12.13;10.53;;;;;;;-4.18;92.97;95585.63;5055770;28;20201;-60
2022/12/13 06:33:20;;;;;;;12.27;9.93;;;;;;;-4.16;92.74;95576.88;5053590;28;20214;-59
2022/12/13 06:35:47;;;;;;;14.57;10.63;;;;;;;-4.17;93.15;95577.78;5055033;28;20212;-60
2022/12/13 06:38:13;;;;;;;13.23;10.67;;;;;;;-4.26;93.17;95590.34;5055308;28;20212;-60
2022/12/13 06:40:40;;;;;;;13.77;11.07;;;;;;;-4.25;94.70;95587.66;5048832;28;20634;-60
2022/12/13 06:43:06;;;;;;;12.30;9.90;;;;;;;-4.17;92.84;95589.84;5043532;28;20204;-61
2022/12/13 06:45:34;;;;;;;15.30;10.40;;;;;;;-4.27;94.34;95586.94;5043781;28;20197;-60
2022/12/13 06:48:01;;;;;;;11.63;10.07;;;;;;;-4.22;95.52;95579.78;5046938;28;20212;-60
2022/12/13 06:50:27;;;;;;;15.23;11.13;;;;;;;-4.16;95.24;95581.22;5047722;28;20222;-59
2022/12/13 06:52:53;;;;;;;14.23;11.27;;;;;;;-4.15;94.07;95582.88;5043518;28;20322;-61
2022/12/13 06:55:20;;;;;;;13.30;10.83;;;;;;;-4.15;93.51;95593.19;5043806;28;20202;-59
2022/12/13 06:57:47;;;;;;;12.77;10.50;;;;;;;-4.19;94.14;95595.13;5047035;28;20219;-60
2022/12/13 07:00:14;;;;;;;12.17;10.00;;;;;;;-4.24;93.04;95583.34;5061597;28;20257;-60
2022/12/13 07:02:42;;;;;;;12.63;11.10;;;;;;;-4.31;92.36;95593.16;5059424;28;20540;-61
2022/12/13 07:05:10;;;;;;;12.80;10.73;;;;;;;-4.27;93.12;95591.25;5045111;28;20217;-60
2022/12/13 07:07:36;;;;;;;13.20;9.80;;;;;;;-4.26;93.91;95590.34;5044240;28;20210;-60
2022/12/13 07:10:03;;;;;;;13.90;10.27;;;;;;;-4.29;92.16;95586.19;5042755;28;20203;-59
2022/12/13 07:12:29;;;;;;;13.47;10.70;;;;;;;-4.21;93.44;95584.03;5043732;28;20485;-61
2022/12/13 07:14:56;;;;;;;12.87;10.97;;;;;;;-4.23;93.68;95596.19;5042929;28;20225;-60
2022/12/13 07:17:22;;;;;;;13.03;10.03;;;;;;;-4.15;93.78;95600.94;5043786;28;20217;-59
2022/12/13 07:19:50;;;;;;;14.03;11.03;;;;;;;-4.22;92.45;95592.69;5043404;28;20202;-60
2022/12/13 07:22:17;;;;;;;11.83;10.00;;;;;;;-4.22;92.70;95597.84;5044131;28;20199;-60
2022/12/13 07:24:43;;;;;;;13.33;10.20;;;;;;;-4.16;92.59;95602.69;5042747;28;20304;-60
2022/12/13 07:27:10;;;;;;;15.67;10.77;;;;;;;-4.14;94.94;95600.84;5042890;28;20222;-60
2022/12/13 07:29:37;;;;;;;14.87;10.20;;;;;;;-4.03;94.60;95601.13;5042264;28;20482;-59
2022/12/13 07:32:03;;;;;;;11.50;9.63;;;;;;;-4.08;93.94;95599.72;5041951;28;20260;-60
2022/12/13 07:34:30;;;;;;;15.60;11.20;;;;;;;-4.09;91.21;95598.88;5041338;28;20622;-60
2022/12/13 07:36:58;;;;;;;11.60;10.40;;;;;;;-4.08;91.99;95603.13;5041860;28;20198;-60
2022/12/13 07:39:25;;;;;;;13.30;10.50;;;;;;;-4.04;92.10;95599.44;5042366;28;20202;-61
2022/12/13 07:41:53;;;;;;;22.53;11.43;;;;;;;-4.06;91.08;95608.19;5042164;28;20272;-59
2022/12/13 07:44:20;;;;;;;20.27;11.00;;;;;;;-4.08;92.98;95612.63;5044605;28;20209;-59
2022/12/13 07:46:46;;;;;;;16.67;10.47;;;;;;;-4.08;92.43;95618.63;5042153;28;20209;-60
2022/12/13 07:49:13;;;;;;;16.27;11.23;;;;;;;-4.03;92.44;95623.53;5041510;28;20211;-60
2022/12/13 07:51:39;;;;;;;11.83;10.07;;;;;;;-4.05;92.89;95617.63;5042430;28;20213;-60
2022/12/13 07:54:07;;;;;;;16.90;10.00;;;;;;;-4.02;91.85;95615.72;5041921;28;20528;-60
2022/12/13 07:56:34;;;;;;;19.73;10.47;;;;;;;-3.98;91.49;95616.38;5045523;28;20652;-60
2022/12/13 07:59:00;;;;;;;12.07;9.77;;;;;;;-4.02;90.92;95620.03;5048308;28;20234;-60
2022/12/13 08:01:27;;;;;;;12.60;9.77;;;;;;;-4.04;91.78;95627.84;5054527;28;20247;-60
2022/12/13 08:03:55;;;;;;;11.87;9.10;;;;;;;-3.99;92.61;95629.34;5045804;28;20264;-60
2022/12/13 08:06:21;;;;;;;13.53;10.87;;;;;;;-3.90;92.93;95629.72;5046030;28;20293;-60
2022/12/13 08:08:49;;;;;;;16.50;10.37;;;;;;;-3.93;91.62;95623.91;5045902;28;20203;-60
2022/12/13 08:11:17;;;;;;;24.70;10.73;;;;;;;-3.94;91.02;95632.53;5046084;28;20630;-60
2022/12/13 08:13:44;;;;;;;17.73;11.57;;;;;;;-3.93;89.23;95629.88;5045406;28;20234;-60
2022/12/13 08:16:13;;;;;;;15.60;9.63;;;;;;;-3.94;90.97;95635.13;5045901;28;20209;-59
2022/12/13 08:18:39;;;;;;;11.20;9.57;;;;;;;-3.97;91.51;95632.72;5045268;28;20240;-60
2022/12/13 08:21:08;;;;;;;14.13;10.30;;;;;;;-3.92;91.19;95647.03;5045754;28;20206;-60
2022/12/13 08:23:35;;;;;;;18.27;10.17;;;;;;;-3.85;91.22;95639.78;5045495;28;20223;-59
2022/12/13 08:26:02;;;;;;;11.43;9.27;;;;;;;-3.86;91.80;95640.72;5045842;28;20668;-60
2022/12/13 08:28:30;;;;;;;12.77;9.80;;;;;;;-3.76;92.15;95642.75;5045551;28;20222;-61
2022/12/13 08:31:03;;;;;;;13.83;10.27;;;;;;;-3.75;90.89;95635.78;5045835;28;21342;-60
2022/12/13 08:33:30;;;;;;;13.30;10.57;;;;;;;-3.75;90.75;95635.78;5044926;28;20570;-61
2022/12/13 08:35:56;;;;;;;12.57;10.23;;;;;;;-3.79;90.11;95642.06;5045468;28;20207;-59
2022/12/13 08:38:22;;;;;;;11.83;9.83;;;;;;;-3.74;91.05;95645.22;5045677;28;20742;-59
2022/12/13 08:40:49;;;;;;;14.23;9.70;;;;;;;-3.70;89.53;95646.72;5045485;28;20777;-59
2022/12/13 08:43:15;;;;;;;12.57;9.70;;;;;;;-3.62;90.14;95649.75;5045987;28;20198;-59
2022/12/13 08:45:43;;;;;;;14.20;10.07;;;;;;;-3.68;90.25;95645.72;5044977;28;20217;-60
2022/12/13 08:48:10;;;;;;;13.10;9.50;;;;;;;-3.59;90.10;95658.16;5045462;28;20216;-60
2022/12/13 08:50:36;;;;;;;15.47;9.97;;;;;;;-3.60;89.31;95653.06;5045094;28;20235;-60
2022/12/13 08:53:03;;;;;;;12.33;9.53;;;;;;;-3.58;89.66;95661.59;5045200;28;20235;-60
2022/12/13 08:55:29;;;;;;;12.87;9.90;;;;;;;-3.60;89.67;95653.06;5044707;28;20703;-60
2022/12/13 08:57:56;;;;;;;14.03;10.17;;;;;;;-3.53;88.86;95662.16;5045285;28;20632;-60
2022/12/13 09:00:23;;;;;;;11.83;9.67;;;;;;;-3.45;87.90;95660.00;5045167;28;20265;-60
2022/12/13 09:02:51;;;;;;;12.17;10.17;;;;;;;-3.51;89.73;95655.19;5045276;28;20540;-60
2022/12/13 09:05:17;;;;;;;11.93;10.37;;;;;;;-3.36;89.98;95659.50;5044198;28;20204;-60
2022/12/13 09:07:44;;;;;;;13.83;10.83;;;;;;;-3.49;89.89;95653.34;5045144;28;20537;-61
2022/12/13 09:10:11;;;;;;;11.73;9.73;;;;;;;-3.57;87.77;95658.06;5044656;28;20207;-60
2022/12/13 09:12:41;;;;;;;11.20;9.87;;;;;;;-3.56;88.52;95663.16;5045184;28;20223;-59
2022/12/13 09:15:08;;;;;;;12.10;9.87;;;;;;;-3.44;89.42;95661.69;5045097;28;20215;-60
2022/12/13 09:17:34;;;;;;;12.60;10.47;;;;;;;-3.48;87.27;95667.94;5046023;28;20200;-60
2022/12/13 09:20:02;;;;;;;13.33;10.20;;;;;;;-3.42;87.51;95665.00;5044668;28;20221;-60
2022/12/13 09:22:29;;;;;;;12.20;9.43;;;;;;;-3.44;87.51;95664.25;5045313;28;20231;-60
2022/12/13 09:24:55;;;;;;;13.23;9.63;;;;;;;-3.48;87.87;95662.75;5044410;28;20211;-60
2022/12/13 09:27:23;;;;;;;12.60;10.30;;;;;;;-3.48;89.15;95661.91;5045443;28;20493;-59
2022/12/13 09:29:49;;;;;;;12.13;10.20;;;;;;;-3.38;89.24;95658.75;5044740;28;20204;-60
2022/12/13 09:32:16;;;;;;;12.90;10.10;;;;;;;-3.32;88.85;95663.59;5044839;28;20654;-62
2022/12/13 09:34:43;;;;;;;10.70;9.53;;;;;;;-3.32;89.18;95666.16;5044531;28;20207;-59
2022/12/13 09:37:12;;;;;;;13.47;9.70;;;;;;;-3.28;88.25;95654.75;5045428;28;20545;-59
2022/12/13 09:39:38;;;;;;;13.67;10.60;;;;;;;-3.19;90.29;95659.41;5045967;28;20195;-60
2022/12/13 09:42:06;;;;;;;13.77;11.03;;;;;;;-3.13;90.36;95659.09;5045115;28;20207;-60
2022/12/13 09:44:34;;;;;;;15.43;10.50;;;;;;;-3.11;88.42;95665.00;5043858;28;20195;-61
2022/12/13 09:47:03;;;;;;;11.47;10.10;;;;;;;-3.10;88.27;95661.50;5043297;28;20690;-60
2022/12/13 09:49:32;;;;;;;14.97;10.27;;;;;;;-3.09;88.33;95659.75;5043247;28;20213;-60
2022/12/13 09:52:01;;;;;;;11.03;9.80;;;;;;;-2.98;88.02;95656.56;5043679;28;20218;-59
2022/12/13 09:54:29;;;;;;;13.93;10.43;;;;;;;-3.08;87.51;95657.06;5042828;28;20739;-60
2022/12/13 09:56:56;;;;;;;12.33;10.13;;;;;;;-3.06;88.46;95652.66;5043570;28;20195;-60
2022/12/13 09:59:27;;;;;;;13.40;10.33;;;;;;;-2.91;88.91;95653.56;5043716;28;20211;-61
2022/12/13 10:01:54;;;;;;;12.60;10.00;;;;;;;-2.91;87.80;95648.38;5045205;28;20199;-61
2022/12/13 10:04:21;;;;;;;12.77;10.03;;;;;;;-2.87;87.59;95643.88;5045342;28;20214;-61
2022/12/13 10:06:52;;;;;;;11.80;9.60;;;;;;;-2.83;88.16;95637.56;5045521;28;20510;-59
2022/12/13 10:09:19;;;;;;;14.53;10.73;;;;;;;-2.72;88.49;95646.41;5051162;28;20206;-60
2022/12/13 10:11:51;;;;;;;12.90;10.27;;;;;;;-2.87;86.75;95633.50;5043102;28;20594;-60
2022/12/13 10:14:23;;;;;;;12.07;10.43;;;;;;;-2.73;87.77;95630.97;5042886;28;20311;-60
2022/12/13 10:16:52;;;;;;;13.10;10.63;;;;;;;-2.65;87.19;95636.53;5043165;28;20562;-60
2022/12/13 10:19:22;;;;;;;15.37;11.10;;;;;;;-2.73;86.90;95631.78;5042575;28;20204;-59
2022/12/13 10:21:50;;;;;;;12.67;10.47;;;;;;;-2.70;87.52;95629.03;5042979;28;20296;-60
2022/12/13 10:24:19;;;;;;;15.23;10.60;;;;;;;-2.64;87.67;95622.66;5043087;28;20219;-61
2022/12/13 10:26:46;;;;;;;15.23;10.90;;;;;;;-2.75;87.18;95617.28;5043153;28;20211;-60
2022/12/13 10:29:14;;;;;;;16.53;11.57;;;;;;;-2.71;86.88;95618.78;5043199;28;20207;-60
2022/12/13 10:31:42;;;;;;;14.60;10.87;;;;;;;-2.69;87.02;95622.09;5047029;28;20198;-60
2022/12/13 10:34:21;;;;;;;11.73;10.30;;;;;;;-2.61;86.47;95625.91;5043842;28;20242;-60
2022/12/13 10:36:47;;;;;;;16.53;10.63;;;;;;;-2.81;86.03;95620.22;5043655;28;20280;-60
2022/12/13 10:39:17;;;;;;;12.97;10.63;;;;;;;-2.71;88.99;95614.44;5043624;28;20204;-60
2022/12/13 10:41:45;;;;;;;15.00;10.10;;;;;;;-2.73;88.78;95623.22;5043051;28;20262;-62
2022/12/13 10:44:24;;;;;;;17.23;10.00;;;;;;;-2.69;86.30;95627.25;5042547;28;20639;-60
2022/12/13 10:46:53;;;;;;;11.87;10.13;;;;;;;-2.62;88.12;95623.41;5042541;28;20715;-61
2022/12/13 10:49:21;;;;;;;11.63;9.63;;;;;;;-2.63;87.76;95614.84;5042197;28;20207;-60
2022/12/13 10:51:49;;;;;;;11.93;9.60;;;;;;;-2.69;87.51;95612.56;5044249;28;20289;-60
2022/12/13 10:54:18;;;;;;;12.13;10.53;;;;;;;-2.75;86.31;95617.28;5043445;28;20223;-61
2022/12/13 10:56:48;;;;;;;12.90;10.37;;;;;;;-2.67;87.94;95615.09;5043285;28;20195;-61
2022/12/13 10:59:26;;;;;;;12.13;10.30;;;;;;;-2.74;87.80;95609.44;5042648;28;20682;-61
2022/12/13 11:01:53;;;;;;;13.23;10.70;;;;;;;-2.78;86.77;95614.88;5042798;28;20199;-60
2022/12/13 11:04:26;;;;;;;12.50;10.63;;;;;;;-2.65;86.85;95618.41;5042694;28;20279;-60
2022/12/13 11:06:53;;;;;;;14.10;10.77;;;;;;;-2.68;86.78;95613.41;5043110;28;20204;-60
2022/12/13 11:09:29;;;;;;;12.03;10.67;;;;;;;-2.81;86.58;95615.06;5044019;28;20297;-61
2022/12/13 11:11:57;;;;;;;13.60;10.47;;;;;;;-2.77;86.70;95614.78;5043394;28;20211;-60
2022/12/13 11:14:27;;;;;;;11.70;10.37;;;;;;;-2.80;85.91;95614.13;5042933;28;20242;-60
2022/12/13 11:16:56;;;;;;;12.13;10.43;;;;;;;-2.92;87.33;95609.66;5042266;28;20646;-60
2022/12/13 11:19:26;;;;;;;14.50;10.23;;;;;;;-2.88;89.01;95606.81;5042035;28;20211;-60
2022/12/13 11:21:53;;;;;;;11.77;10.33;;;;;;;-2.75;88.94;95605.19;5042137;28;20203;-61
2022/12/13 11:24:21;;;;;;;13.17;10.73;;;;;;;-2.66;88.58;95607.22;5042374;28;20203;-61